Latest Weather Observations for Grove

IDT60901

Issued at 9:41 pm EST Monday 18 June 2018 (issued every 10 minutes, with the page automatically refreshed every 10 minutes)

About weather observations | Map of Hobart area stations | Latest observations for Hobart area | Other Formats
Station Details ID: 094220 Name: GROVE (RESEARCH STATION) Lat: -42.99 Lon: 147.07 Height: 65.0 m
Data from the previous 72 hours. | See also: Recent months at Grove
Date/Time
EST
Temp
°C
App
Temp
°C
Dew
Point
°C
Rel
Hum
%
Delta-T
°C
Wind Press
QNH
hPa
Press
MSL
hPa
Rain since
9am
mm
Dir  Spd
km/h
Gust
km/h
Spd
kts
Gust
kts
18/09:30pm 6.9 4.8 6.7 99 0.1 ENE 7 9 4 5 - - 2.4
18/09:00pm 6.8 5.3 6.6 99 0.1 NW 4 6 2 3 - - 2.4
18/08:30pm 7.1 6.4 7.1 100 0.0 CALM 0 2 0 1 - - 2.4
18/08:00pm 7.6 6.6 7.2 97 0.2 SW 2 7 1 4 - - 2.4
18/07:30pm 7.7 6.7 7.3 97 0.2 SW 2 6 1 3 - - 2.4
18/07:00pm 7.8 6.0 7.2 96 0.3 WSW 6 7 3 4 - - 2.4
18/06:30pm 8.0 6.3 7.4 96 0.3 W 6 9 3 5 - - 2.4
18/06:00pm 8.1 7.5 7.5 96 0.3 CALM 0 0 0 0 - - 2.4
18/05:30pm 8.2 6.3 7.6 96 0.3 SW 7 11 4 6 - - 2.4
18/05:00pm 8.6 6.6 7.1 90 0.7 SSW 7 9 4 5 - - 2.4
18/04:30pm 9.2 7.2 7.1 87 1.0 SSW 7 9 4 5 - - 2.4
18/04:00pm 9.5 7.6 7.4 87 1.0 SW 7 11 4 6 - - 2.4
18/03:30pm 10.0 9.5 7.7 86 1.1 CALM 0 0 0 0 - - 2.4
18/03:00pm 10.8 9.8 7.5 80 1.6 W 2 7 1 4 - - 2.4
18/02:30pm 9.5 7.8 7.6 88 0.9 ESE 6 9 3 5 - - 2.4
18/02:00pm 9.0 8.5 8.0 93 0.5 CALM 0 0 0 0 - - 2.4
18/01:30pm 8.4 7.9 7.8 96 0.3 CALM 0 0 0 0 - - 2.4
18/01:00pm 7.8 6.0 7.2 96 0.3 ENE 6 7 3 4 - - 2.2
18/12:30pm 7.5 6.0 6.6 94 0.4 E 4 7 2 4 - - 1.6
18/12:00pm 7.3 6.1 6.6 95 0.3 E 2 6 1 3 - - 1.6
18/11:30am 7.1 5.8 6.2 94 0.4 E 2 6 1 3 - - 1.4
18/11:00am 6.9 5.0 6.5 97 0.2 E 6 6 3 3 - - 1.2
18/10:30am 6.8 5.6 6.4 97 0.2 E 2 7 1 4 - - 1.2
18/10:00am 6.5 5.6 6.1 97 0.2 CALM 0 0 0 0 - - 1.0
18/09:30am 6.1 4.4 5.9 99 0.1 ESE 4 7 2 4 - - 0.8
18/09:00am 6.0 3.8 5.3 95 0.3 ESE 6 7 3 4 - - 18.4
18/08:30am 5.8 3.5 5.6 99 0.1 E 7 7 4 4 - - 18.0
18/08:00am 5.7 3.5 5.5 99 0.1 ENE 6 7 3 4 - - 17.0
18/07:30am 5.7 3.3 5.2 97 0.2 NNE 7 9 4 5 - - 16.4
18/07:00am 5.7 4.6 5.2 97 0.2 CALM 0 0 0 0 - - 16.2
18/06:30am 5.8 4.3 5.1 95 0.3 W 2 7 1 4 - - 15.8
18/06:00am 5.8 4.3 4.9 94 0.4 NNE 2 7 1 4 - - 15.8
18/05:30am 5.8 3.9 4.9 94 0.4 NNE 4 7 2 4 - - 15.8
18/05:00am 5.9 3.0 4.5 91 0.6 ENE 9 13 5 7 - - 15.8
18/04:30am 5.7 3.2 4.8 94 0.4 NE 7 9 4 5 - - 15.8
18/04:00am 6.5 4.0 3.9 83 1.1 SW 6 11 3 6 - - 15.8
18/03:30am 6.5 3.4 3.7 82 1.2 S 9 15 5 8 - - 15.8
18/03:00am 5.9 3.6 5.0 94 0.4 NNE 6 7 3 4 - - 15.8
18/02:30am 6.5 5.4 4.9 89 0.7 CALM 0 6 0 3 - - 15.8
18/02:00am 6.5 4.0 4.7 88 0.8 W 7 13 4 7 - - 15.8
18/01:30am 6.3 4.8 5.2 93 0.5 N 2 7 1 4 - - 15.8
18/01:00am 6.6 4.2 4.5 86 0.9 NE 6 7 3 4 - - 15.8
18/12:30am 6.3 4.5 5.2 93 0.5 N 4 6 2 3 - - 15.8
18/12:00am 6.6 4.8 5.2 91 0.6 NNE 4 7 2 4 - - 15.8
 
Date/Time
EST
Temp
°C
App
Temp
°C
Dew
Point
°C
Rel
Hum
%
Delta-T
°C
Wind Press
QNH
hPa
Press
MSL
hPa
Rain since
9am
mm
Dir  Spd
km/h
Gust
km/h
Spd
kts
Gust
kts
17/11:30pm 7.0 4.5 4.7 85 1.0 S 7 9 4 5 - - 15.8
17/11:00pm 7.1 5.6 4.8 85 1.0 S 2 11 1 6 - - 15.8
17/10:30pm 7.2 4.9 4.9 85 1.0 S 6 13 3 7 - - 15.8
17/10:00pm 7.3 4.8 5.0 85 1.0 S 7 13 4 7 - - 15.8
17/09:30pm 7.2 4.5 5.4 88 0.8 S 9 13 5 7 - - 15.8
17/09:00pm 7.2 4.9 5.6 89 0.7 SSW 7 28 4 15 - - 15.8
17/08:30pm 7.0 4.0 6.1 94 0.4 SSW 11 19 6 10 - - 15.8
17/08:00pm 7.5 3.6 5.5 87 0.9 SSW 15 26 8 14 - - 15.6
17/07:30pm 7.5 4.5 6.0 90 0.7 SSW 11 19 6 10 - - 15.6
17/07:00pm 7.3 5.4 6.6 95 0.3 SSW 6 9 3 5 - - 15.6
17/06:30pm 7.3 5.4 6.9 97 0.2 WSW 6 9 3 5 - - 15.4
17/06:00pm 7.5 5.0 6.6 94 0.4 SSW 9 19 5 10 - - 14.6
17/05:30pm 7.7 4.8 6.4 91 0.6 SSW 11 24 6 13 - - 14.2
17/05:00pm 7.7 4.1 6.6 93 0.5 SW 15 22 8 12 - - 14.0
17/04:30pm 7.7 5.3 6.8 94 0.4 SSW 9 19 5 10 - - 13.4
17/04:00pm 8.1 4.5 6.6 90 0.7 SSW 15 20 8 11 - - 13.0
17/03:30pm 8.2 5.1 7.1 93 0.5 SSW 13 22 7 12 - - 12.8
17/03:00pm 8.4 5.3 7.1 91 0.6 SSW 13 20 7 11 - - 12.4
17/02:30pm 8.7 5.5 7.0 89 0.8 SSW 13 22 7 12 - - 11.8
17/02:00pm 8.7 5.7 7.6 93 0.5 SSW 13 24 7 13 - - 11.4
17/01:30pm 8.5 5.9 7.7 95 0.4 SSW 11 17 6 9 - - 10.6
17/01:00pm 8.8 4.6 7.5 91 0.6 S 19 28 10 15 - - 8.2
17/12:30pm 9.0 6.0 7.5 90 0.7 SSW 13 28 7 15 - - 7.8
17/12:00pm 9.0 5.2 7.5 90 0.7 S 17 28 9 15 - - 6.6
17/11:30am 9.1 6.5 7.8 92 0.6 S 11 19 6 10 - - 5.8
17/11:00am 9.5 6.6 8.1 91 0.7 S 13 22 7 12 - - 4.6
17/10:30am 9.2 5.4 7.7 90 0.7 S 17 26 9 14 - - 4.4
17/10:00am 9.3 5.5 7.6 89 0.8 S 17 33 9 18 - - 3.6
17/09:30am 8.7 6.1 7.6 93 0.5 SSW 11 19 6 10 - - 2.2
17/09:00am 8.4 6.6 7.8 96 0.3 SSW 7 11 4 6 - - 27.4
17/08:30am 8.2 6.9 7.8 97 0.2 SSW 4 9 2 5 - - 26.2
17/08:00am 7.0 5.7 6.1 94 0.4 SSW 2 7 1 4 - - 25.6
17/07:30am 6.3 5.0 5.9 97 0.2 SW 2 6 1 3 - - 25.2
17/07:00am 7.5 5.6 6.6 94 0.4 S 6 7 3 4 - - 25.2
17/06:30am 7.9 6.0 6.8 93 0.5 S 6 7 3 4 - - 25.2
17/06:00am 8.7 6.7 7.0 89 0.8 SSW 7 11 4 6 - - 25.2
17/05:30am 8.8 6.1 7.5 91 0.6 S 11 20 6 11 - - 25.2
17/05:00am 8.8 6.4 6.9 88 0.9 SSW 9 15 5 8 - - 24.8
17/04:30am 8.9 5.2 6.5 85 1.1 S 15 28 8 15 - - 24.4
17/04:00am 8.5 6.2 7.4 93 0.5 SW 9 13 5 7 - - 23.2
17/03:30am 9.0 6.0 7.5 90 0.7 S 13 26 7 14 - - 22.4
17/03:00am 8.8 6.3 8.2 96 0.3 SSW 11 17 6 9 - - 21.6
17/02:30am 8.8 6.3 8.2 96 0.3 SSW 11 17 6 9 - - 20.2
17/02:00am 8.7 4.7 8.1 96 0.3 SSW 19 26 10 14 - - 14.8
17/01:30am 8.7 6.1 7.6 93 0.5 S 11 17 6 9 - - 12.4
17/01:00am 8.1 5.7 7.0 93 0.5 S 9 15 5 8 - - 11.8
17/12:30am 7.6 6.1 7.0 96 0.3 S 4 7 2 4 - - 11.8
17/12:00am 7.9 5.6 7.3 96 0.3 SW 9 20 5 11 - - 11.8
 
Date/Time
EST
Temp
°C
App
Temp
°C
Dew
Point
°C
Rel
Hum
%
Delta-T
°C
Wind Press
QNH
hPa
Press
MSL
hPa
Rain since
9am
mm
Dir  Spd
km/h
Gust
km/h
Spd
kts
Gust
kts
16/11:30pm 7.7 5.3 6.8 94 0.4 S 9 20 5 11 - - 10.0
16/11:00pm 7.9 5.8 6.6 91 0.6 SSW 7 13 4 7 - - 9.2
16/10:30pm 7.6 5.6 7.0 96 0.3 WSW 7 11 4 6 - - 9.2
16/10:00pm 8.0 5.6 6.9 93 0.5 S 9 13 5 7 - - 8.4
16/09:30pm 8.1 4.1 6.6 90 0.7 SSW 17 24 9 13 - - 7.6
16/09:00pm 8.0 4.0 6.5 90 0.7 SSW 17 28 9 15 - - 7.0
16/08:30pm 7.8 5.0 6.9 94 0.4 S 11 17 6 9 - - 6.8
16/08:00pm 7.8 5.4 6.9 94 0.4 SW 9 15 5 8 - - 5.8
16/07:30pm 7.6 5.8 7.2 97 0.2 NNE 6 7 3 4 - - 5.0
16/07:00pm 7.7 5.7 7.1 96 0.3 E 7 13 4 7 - - 4.6
16/06:30pm 7.7 7.1 7.3 97 0.2 CALM 0 6 0 3 - - 4.0
16/06:00pm 7.8 7.2 7.2 96 0.3 CALM 0 0 0 0 - - 2.8
16/05:30pm 7.9 6.4 7.0 94 0.4 NNE 4 9 2 5 - - 2.2
16/05:00pm 8.1 6.7 7.2 94 0.4 NE 4 7 2 4 - - 2.2
16/04:30pm 8.5 7.1 7.2 91 0.6 ENE 4 7 2 4 - - 2.2
16/04:00pm 8.9 7.2 7.4 90 0.7 E 6 9 3 5 - - 2.2
16/03:30pm 8.9 7.1 7.0 88 0.9 SSW 6 9 3 5 - - 2.2
16/03:00pm 9.1 7.1 7.0 87 1.0 SE 7 11 4 6 - - 2.0
16/02:30pm 9.2 7.6 6.4 83 1.3 SSE 4 7 2 4 - - 2.0
16/02:00pm 9.2 5.8 5.9 80 1.5 WSW 13 24 7 13 - - 1.8
16/01:30pm 10.5 6.1 5.0 69 2.5 WSW 17 28 9 15 - - 1.4
16/01:00pm 11.5 8.6 4.4 61 3.2 WSW 9 17 5 9 - - 1.4
16/12:30pm 12.1 9.3 5.2 62 3.2 SW 9 17 5 9 - - 1.4
16/12:00pm 10.9 8.6 4.7 65 2.8 SE 6 7 3 4 - - 1.4
16/11:30am 10.1 8.8 6.0 76 1.9 E 2 9 1 5 - - 1.4
16/11:00am 9.5 8.3 6.3 80 1.5 WNW 2 6 1 3 - - 1.4
16/10:30am 8.5 6.3 6.3 86 1.0 S 7 11 4 6 - - 1.4
16/10:00am 8.4 5.2 5.0 79 1.5 SSW 11 22 6 12 - - 1.4
16/09:30am 8.5 4.1 4.9 78 1.6 WSW 17 35 9 19 - - 1.2
16/09:00am 7.5 5.5 6.2 91 0.6 WSW 6 9 3 5 - - 3.6
16/08:30am 5.5 4.0 4.8 95 0.3 N 2 7 1 4 - - 3.6
16/08:00am 5.3 2.8 4.6 95 0.3 E 7 15 4 8 - - 3.4
16/07:30am 5.2 2.7 4.7 97 0.2 NE 7 9 4 5 - - 3.4
16/07:00am 5.5 3.2 5.0 97 0.2 ESE 6 9 3 5 - - 3.2
16/06:30am 5.2 3.3 4.7 97 0.2 ENE 4 9 2 5 - - 3.0
16/06:00am 5.6 3.7 5.1 97 0.2 NW 4 7 2 4 - - 2.6
16/05:30am 5.7 3.2 4.8 94 0.4 ESE 7 9 4 5 - - 2.2
16/05:00am 6.7 5.0 3.9 82 1.2 SSW 2 9 1 5 - - 1.8
16/04:30am 6.8 4.1 3.8 81 1.3 WSW 7 17 4 9 - - 1.8
16/04:00am 7.9 2.9 3.5 74 1.9 SW 19 33 10 18 - - 1.2
16/03:30am 8.1 4.4 2.1 66 2.5 WSW 11 15 6 8 - - 0.2
16/03:00am 8.3 5.5 2.1 65 2.6 W 6 15 3 8 - - 0.2
16/02:30am 8.7 4.5 1.4 60 3.0 WNW 13 24 7 13 - - 0.2
16/02:00am 8.5 5.4 1.4 61 2.9 WNW 7 13 4 7 - - 0.2
16/01:30am 8.3 5.2 1.5 62 2.8 NW 7 13 4 7 - - 0.2
16/01:00am 8.5 4.6 1.1 59 3.0 WNW 11 20 6 11 - - 0.2
16/12:30am 8.8 5.7 1.5 60 3.0 N 7 13 4 7 - - 0.2
16/12:00am 8.8 5.7 1.5 60 3.0 ENE 7 13 4 7 - - 0.2
 
Date/Time
EST
Temp
°C
App
Temp
°C
Dew
Point
°C
Rel
Hum
%
Delta-T
°C
Wind Press
QNH
hPa
Press
MSL
hPa
Rain since
9am
mm
Dir  Spd
km/h
Gust
km/h
Spd
kts
Gust
kts
15/11:30pm 9.1 5.3 1.6 59 3.1 WNW 11 17 6 9 - - 0.2
15/11:00pm 8.7 5.3 1.7 61 2.9 N 9 17 5 9 - - 0.2
15/10:30pm 8.9 4.7 1.4 59 3.1 NNW 13 26 7 14 - - 0.2
15/10:00pm 8.6 5.4 1.0 59 3.1 ESE 7 9 4 5 - - 0.2

Latest Capital City Observations: Canberra | Sydney | Melbourne | Brisbane | Adelaide | Perth | Hobart | Darwin

Other Formats:

Comma delimited format used in spreadsheet applications
http://www.bom.gov.au/fwo/IDT60901/IDT60901.95977.axf

JavaScript Object Notation format (JSON) in row-major order
http://www.bom.gov.au/fwo/IDT60901/IDT60901.95977.json